Tampa, Florida
Traffic Map
Current Weather Conditions
Tampa, Florida
Scattered Clouds
Scattered Clouds
21°
Feels Like: 21°
Wind Chill: 21° Ceiling: Unl
Heat Index: 21° Visibility: 10mi
Dew Point: 14° Wind: 12mph
Humidity: 65% Direction: 300° (WNW)
Pressure: 30.05in Gusts: 0mph
Raw Report DataKTPA 202153Z 30010KT 10SM SCT027 SCT040 SCT250 21/14 A3005 RMK AO2 SLP176 T02110144
Traffic Incident Summary
Active as of:
Severity:
Category:
InformationThere was an issue retrieving the traffic information for this location. Please try a different location or try again shortly.
Advertisements
At Last! Intellicast now available for iPhone and Android